EmailTwitter


Observations de surface / Québec / CYSC

Régions: Québec | Canada | États-Unis | Europe | France | UK | Ailleurs
Station
Affichage
Infos & localisation pour CYSC | Aide pour décoder les METARs

Observations prises le 2017-12-12 à 10H00 UTC à SHERBROOKE, QB (CYSC)

Etat du ciel: partiellement nuageux.

Obstacle(s) à la visibilité: faible neige.

Température: -13.0 Celsius

Point de rosée: -15.0 Celsius

Humidité relative: 85%

Facteur vent: -19.

Vents: Nord-est à 11 km/h ou 6 noeuds.

Pression au niveau moyen de la mer: 101.20 kilopascals.

Calage altimétrique: 100.98 kilopascals ou 29.82 pouces de mercure.

Visibilité horizontale: 3.00 milles terrestres ou 4.80 kilomètres.

Hauteur du plafond: 396 mètres ( 1300 pieds ).

Observation METAR:

CYSC 121000Z AUTO 06006KT 3SM -SN BKN013 M13/M15 A2982 RMK PRESFR SLP120=